createdAt,value
2018-07-14T00:00:04.489Z,99.99
2018-07-14T00:01:04.447Z,99.99
2018-07-14T00:02:04.437Z,99.99
2018-07-14T00:03:04.429Z,99.99
2018-07-14T00:04:04.413Z,99.99
2018-07-14T00:05:04.402Z,99.99
2018-07-14T00:06:04.410Z,99.99
2018-07-14T00:07:04.379Z,99.99
2018-07-14T00:08:04.375Z,99.99
2018-07-14T00:09:04.362Z,99.99
2018-07-14T00:10:04.436Z,99.99
2018-07-14T00:11:04.369Z,99.99
2018-07-14T00:12:04.325Z,99.99
2018-07-14T00:13:04.318Z,99.99
2018-07-14T00:14:04.311Z,99.99
2018-07-14T00:15:04.301Z,99.99
2018-07-14T00:16:04.281Z,99.99
2018-07-14T00:17:04.317Z,99.99
2018-07-14T00:18:04.263Z,99.99
2018-07-14T00:19:04.255Z,99.99
2018-07-14T00:20:04.247Z,99.99
2018-07-14T00:21:04.235Z,99.99
2018-07-14T00:22:04.247Z,99.99
2018-07-14T00:23:04.243Z,99.99
2018-07-14T00:24:04.207Z,99.99
2018-07-14T00:25:04.188Z,99.99
2018-07-14T00:26:04.179Z,99.99
2018-07-14T00:27:04.173Z,99.99
2018-07-14T00:28:04.178Z,99.99
2018-07-14T00:29:04.147Z,99.99
2018-07-14T00:30:04.134Z,99.99
2018-07-14T00:31:04.121Z,99.99
2018-07-14T00:32:04.117Z,99.99
2018-07-14T00:33:04.130Z,99.99
2018-07-14T00:34:04.093Z,99.99
2018-07-14T00:35:04.087Z,99.99
2018-07-14T00:36:04.069Z,99.99
2018-07-14T00:37:04.063Z,99.99
2018-07-14T00:38:04.047Z,99.99
2018-07-14T00:39:04.054Z,99.99
2018-07-14T00:40:04.031Z,99.99
2018-07-14T00:41:04.021Z,99.99
2018-07-14T00:42:04.007Z,99.99
2018-07-14T00:43:03.998Z,99.99
2018-07-14T00:44:03.999Z,99.99
2018-07-14T00:45:03.972Z,99.99
2018-07-14T00:46:03.964Z,99.99
2018-07-14T00:47:03.956Z,99.99
2018-07-14T00:48:03.938Z,99.99
2018-07-14T00:49:03.958Z,99.99
2018-07-14T00:50:03.918Z,99.99
2018-07-14T00:51:03.907Z,99.99
2018-07-14T00:52:03.903Z,99.99
2018-07-14T00:53:03.890Z,99.99
2018-07-14T00:54:03.887Z,99.99
2018-07-14T00:55:03.883Z,99.99
2018-07-14T00:56:03.859Z,99.99
2018-07-14T00:57:03.846Z,99.99
2018-07-14T00:58:03.835Z,99.99
2018-07-14T00:59:03.827Z,99.99
2018-07-14T01:00:03.846Z,99.99
2018-07-14T01:01:03.812Z,99.99
2018-07-14T01:02:03.795Z,99.99
2018-07-14T01:03:03.789Z,99.99
2018-07-14T01:04:03.766Z,99.99
2018-07-14T01:05:03.758Z,99.99
2018-07-14T01:06:03.766Z,99.99
2018-07-14T01:07:03.735Z,99.99
2018-07-14T01:08:03.729Z,99.99
2018-07-14T01:09:03.717Z,99.99
2018-07-14T01:10:03.710Z,99.99
2018-07-14T01:11:03.717Z,99.99
2018-07-14T01:12:03.686Z,99.99
2018-07-14T01:13:03.672Z,99.99
2018-07-14T01:14:03.663Z,99.99
2018-07-14T01:15:03.656Z,99.99
2018-07-14T01:16:03.663Z,99.99
2018-07-14T01:17:03.630Z,99.99
2018-07-14T01:18:03.622Z,99.99
2018-07-14T01:19:03.613Z,99.99
2018-07-14T01:20:03.596Z,99.99
2018-07-14T01:21:03.587Z,99.99
2018-07-14T01:22:03.597Z,99.99
2018-07-14T01:23:03.562Z,99.99
2018-07-14T01:24:03.560Z,99.99
2018-07-14T01:25:03.546Z,99.99
2018-07-14T01:26:03.534Z,99.99
2018-07-14T01:27:03.549Z,99.99
2018-07-14T01:28:03.508Z,99.99
2018-07-14T01:29:03.500Z,99.99
2018-07-14T01:30:03.491Z,99.99
2018-07-14T01:31:03.477Z,99.99
2018-07-14T01:32:03.473Z,99.99
2018-07-14T01:33:03.477Z,99.99
2018-07-14T01:34:03.446Z,99.99
2018-07-14T01:35:03.432Z,99.99
2018-07-14T01:36:03.428Z,99.99
2018-07-14T01:37:03.415Z,99.99
2018-07-14T01:38:03.430Z,99.99
2018-07-14T01:39:03.397Z,99.99
2018-07-14T01:40:03.378Z,99.99
2018-07-14T01:41:03.370Z,99.99
2018-07-14T01:42:03.359Z,99.99
2018-07-14T01:43:03.380Z,99.99
2018-07-14T01:44:03.342Z,99.99
2018-07-14T01:45:03.329Z,99.99
2018-07-14T01:46:03.318Z,99.99
2018-07-14T01:47:03.310Z,99.99
2018-07-14T01:48:03.291Z,99.99
2018-07-14T01:49:03.306Z,99.99
2018-07-14T01:50:03.274Z,99.99
2018-07-14T01:51:03.267Z,99.99
2018-07-14T01:52:03.247Z,99.99
2018-07-14T01:53:03.239Z,99.99
2018-07-14T01:54:03.254Z,99.99
2018-07-14T01:55:03.215Z,99.99
2018-07-14T01:56:03.211Z,99.99
2018-07-14T01:57:03.208Z,99.99
2018-07-14T01:58:03.203Z,99.99
2018-07-14T01:59:03.190Z,99.99
2018-07-14T02:00:03.180Z,99.99
2018-07-14T02:01:03.153Z,99.99
2018-07-14T02:02:03.141Z,99.99
2018-07-14T02:03:03.127Z,99.99
2018-07-14T02:04:03.123Z,99.99
2018-07-14T02:05:03.138Z,99.99
2018-07-14T02:06:03.098Z,99.99
2018-07-14T02:07:03.087Z,99.99
2018-07-14T02:08:03.094Z,99.99
2018-07-14T02:09:03.067Z,99.99
2018-07-14T02:10:03.057Z,99.99
2018-07-14T02:11:03.075Z,99.99
2018-07-14T02:12:03.034Z,99.99
2018-07-14T02:13:03.022Z,99.99
2018-07-14T02:14:03.017Z,99.99
2018-07-14T02:15:02.997Z,99.99
2018-07-14T02:16:02.998Z,99.99
2018-07-14T02:17:02.999Z,99.99
2018-07-14T02:18:02.969Z,99.99
2018-07-14T02:19:02.963Z,99.99
2018-07-14T02:20:02.948Z,99.99
2018-07-14T02:21:02.949Z,99.99
2018-07-14T02:22:02.962Z,99.99
2018-07-14T02:23:02.917Z,99.99
2018-07-14T02:24:02.900Z,99.99
2018-07-14T02:25:02.891Z,99.99
2018-07-14T02:26:02.880Z,99.99
2018-07-14T02:27:02.868Z,99.99
2018-07-14T02:28:02.884Z,99.99
2018-07-14T02:29:02.871Z,99.99
2018-07-14T02:30:02.848Z,99.99
2018-07-14T02:31:02.835Z,99.99
2018-07-14T02:32:02.812Z,99.99
2018-07-14T02:33:02.832Z,99.99
2018-07-14T02:34:02.793Z,99.99
2018-07-14T02:35:02.785Z,99.99
2018-07-14T02:36:02.776Z,99.99
2018-07-14T02:37:02.762Z,99.99
2018-07-14T02:38:02.750Z,99.99
2018-07-14T02:39:02.769Z,99.99
2018-07-14T02:40:02.736Z,99.99
2018-07-14T02:41:02.740Z,99.99
2018-07-14T02:42:02.716Z,99.99
2018-07-14T02:43:02.703Z,99.99
2018-07-14T02:44:02.682Z,99.99
2018-07-14T02:45:02.692Z,99.99
2018-07-14T02:46:02.665Z,99.99
2018-07-14T02:47:02.650Z,99.99
2018-07-14T02:48:02.646Z,99.99
2018-07-14T02:49:02.634Z,99.99
2018-07-14T02:50:02.641Z,99.99
2018-07-14T02:51:02.612Z,99.99
2018-07-14T02:52:02.600Z,99.99
2018-07-14T02:53:02.586Z,99.99
2018-07-14T02:54:02.592Z,99.99
2018-07-14T02:55:02.618Z,99.99
2018-07-14T02:56:02.552Z,99.99
2018-07-14T02:57:02.542Z,99.99
2018-07-14T02:58:02.533Z,99.99
2018-07-14T02:59:02.518Z,99.99
2018-07-14T03:00:02.527Z,99.99
2018-07-14T03:01:02.527Z,99.99
2018-07-14T03:02:02.494Z,99.99
2018-07-14T03:03:02.481Z,99.99
2018-07-14T03:04:02.469Z,99.99
2018-07-14T03:05:02.455Z,99.99
2018-07-14T03:06:02.446Z,99.99
2018-07-14T03:07:02.461Z,99.99
2018-07-14T03:08:02.428Z,99.99
2018-07-14T03:09:02.423Z,99.99
2018-07-14T03:10:02.401Z,99.99
2018-07-14T03:11:02.404Z,99.99
2018-07-14T03:12:02.385Z,99.99
2018-07-14T03:13:02.390Z,99.99
2018-07-14T03:14:02.377Z,99.99
2018-07-14T03:15:02.368Z,99.99
2018-07-14T03:16:02.385Z,99.99
2018-07-14T03:17:02.379Z,99.99
2018-07-14T03:18:02.340Z,99.99
2018-07-14T03:19:02.317Z,99.99
2018-07-14T03:20:02.303Z,99.99
2018-07-14T03:21:02.283Z,99.99
2018-07-14T03:22:02.279Z,99.99
2018-07-14T03:23:02.291Z,99.99
2018-07-14T03:24:02.312Z,99.99
2018-07-14T03:25:02.244Z,99.99
2018-07-14T03:26:02.240Z,99.99
2018-07-14T03:27:02.227Z,99.99
2018-07-14T03:28:02.247Z,99.99
2018-07-14T03:29:02.215Z,99.99
2018-07-14T03:30:02.222Z,99.99
2018-07-14T03:31:02.172Z,99.99
2018-07-14T03:32:02.175Z,99.99
2018-07-14T03:33:02.163Z,99.99
2018-07-14T03:34:02.153Z,99.99
2018-07-14T03:35:02.177Z,99.99
2018-07-14T03:36:02.129Z,99.99
2018-07-14T03:37:02.107Z,99.99
2018-07-14T03:38:02.133Z,99.99
2018-07-14T03:39:02.085Z,99.99
2018-07-14T03:40:02.080Z,99.99
2018-07-14T03:41:02.096Z,99.99
2018-07-14T03:42:02.083Z,99.99
2018-07-14T03:43:02.040Z,99.99
2018-07-14T03:44:02.051Z,99.99
2018-07-14T03:45:02.023Z,99.99
2018-07-14T03:46:02.016Z,99.99
2018-07-14T03:47:02.024Z,99.99
2018-07-14T03:48:02.015Z,99.99
2018-07-14T03:49:01.991Z,99.99
2018-07-14T03:50:01.965Z,99.99
2018-07-14T03:51:01.953Z,99.99
2018-07-14T03:52:01.988Z,99.99
2018-07-14T03:53:01.936Z,99.99
2018-07-14T03:54:01.925Z,99.99
2018-07-14T03:55:01.916Z,99.99
2018-07-14T03:56:01.901Z,99.99
2018-07-14T03:57:02.011Z,99.99
2018-07-14T03:58:01.918Z,99.99
2018-07-14T03:59:01.888Z,99.99
2018-07-14T04:00:01.860Z,99.99
2018-07-14T04:01:01.862Z,99.99
2018-07-14T04:02:01.837Z,99.99
2018-07-14T04:03:01.822Z,99.99
2018-07-14T04:04:01.852Z,99.99
2018-07-14T04:05:01.855Z,99.99
2018-07-14T04:06:01.794Z,99.99
2018-07-14T04:07:01.795Z,99.99
2018-07-14T04:08:01.768Z,99.99
2018-07-14T04:09:01.772Z,99.99
2018-07-14T04:10:01.772Z,99.99
2018-07-14T04:11:01.756Z,99.99
2018-07-14T04:12:01.758Z,99.99
2018-07-14T04:13:01.719Z,99.99
2018-07-14T04:14:01.774Z,99.99
2018-07-14T04:15:01.730Z,99.99
2018-07-14T04:16:01.688Z,99.99
2018-07-14T04:17:01.676Z,99.99
2018-07-14T04:18:01.664Z,99.99
2018-07-14T04:19:01.655Z,99.99
2018-07-14T04:20:01.663Z,99.99
2018-07-14T04:21:01.630Z,99.99
2018-07-14T04:22:01.619Z,99.99
2018-07-14T04:23:01.608Z,99.99
2018-07-14T04:24:01.617Z,99.99
2018-07-14T04:25:01.639Z,99.99
2018-07-14T04:26:01.617Z,99.99
2018-07-14T04:27:01.568Z,99.99
2018-07-14T04:28:01.553Z,99.99
2018-07-14T04:29:01.543Z,99.99
2018-07-14T04:30:01.563Z,99.99
2018-07-14T04:31:01.526Z,99.99
2018-07-14T04:32:01.548Z,99.99
2018-07-14T04:33:01.498Z,99.99
2018-07-14T04:34:01.500Z,99.99
2018-07-14T04:35:01.476Z,99.99
2018-07-14T04:36:01.509Z,99.99
2018-07-14T04:37:01.458Z,99.99
2018-07-14T04:38:01.451Z,99.99
2018-07-14T04:39:01.438Z,99.99
2018-07-14T04:40:01.420Z,99.99
2018-07-14T04:41:01.411Z,99.99
2018-07-14T04:42:01.445Z,99.99
2018-07-14T04:43:01.389Z,99.99
2018-07-14T04:44:01.395Z,99.99
2018-07-14T04:45:01.372Z,99.99
2018-07-14T04:46:01.361Z,99.99
2018-07-14T04:47:01.401Z,99.99
2018-07-14T04:48:01.341Z,99.99
2018-07-14T04:49:01.329Z,99.99
2018-07-14T04:50:01.316Z,99.99
2018-07-14T04:51:01.309Z,99.99
2018-07-14T04:52:01.319Z,99.99
2018-07-14T04:53:01.324Z,99.99
2018-07-14T04:54:01.270Z,99.99
2018-07-14T04:55:01.257Z,99.99
2018-07-14T04:56:01.347Z,99.99
2018-07-14T04:57:01.257Z,99.99
2018-07-14T04:58:01.267Z,99.99
2018-07-14T04:59:01.275Z,99.99
2018-07-14T05:00:01.213Z,99.99
2018-07-14T05:01:01.211Z,99.99
2018-07-14T05:02:01.214Z,99.99
2018-07-14T05:03:01.226Z,99.99
2018-07-14T05:04:01.249Z,99.99
2018-07-14T05:05:01.153Z,99.99
2018-07-14T05:06:01.142Z,99.99
2018-07-14T05:07:01.135Z,99.99
2018-07-14T05:08:01.175Z,99.99
2018-07-14T05:09:01.111Z,99.99
2018-07-14T05:10:01.126Z,99.99
2018-07-14T05:11:01.094Z,99.99
2018-07-14T05:12:01.097Z,99.99
2018-07-14T05:13:01.064Z,99.99
2018-07-14T05:14:01.054Z,99.99
2018-07-14T05:15:01.077Z,99.99
2018-07-14T05:16:01.055Z,99.99
2018-07-14T05:17:01.029Z,99.99
2018-07-14T05:18:01.012Z,99.99
2018-07-14T05:19:01.004Z,99.99
2018-07-14T05:20:01.001Z,99.99
2018-07-14T05:21:01.020Z,99.99
2018-07-14T05:22:00.979Z,99.99
2018-07-14T05:23:00.960Z,99.99
2018-07-14T05:24:00.993Z,99.99
2018-07-14T05:25:00.933Z,99.99
2018-07-14T05:26:00.937Z,99.99
2018-07-14T05:27:00.966Z,99.99
2018-07-14T05:28:00.908Z,99.99
2018-07-14T05:29:00.906Z,99.99
2018-07-14T05:30:00.893Z,99.99
2018-07-14T05:31:00.874Z,99.99
2018-07-14T05:32:00.911Z,99.99
2018-07-14T05:33:00.849Z,99.99
2018-07-14T05:34:00.851Z,99.99
2018-07-14T05:35:00.830Z,99.99
2018-07-14T05:36:00.816Z,99.99
2018-07-14T05:37:00.804Z,99.99
2018-07-14T05:38:00.824Z,99.99
2018-07-14T05:39:00.784Z,99.99
2018-07-14T05:40:00.785Z,99.99
2018-07-14T05:41:00.801Z,99.99
2018-07-14T05:42:00.756Z,99.99
2018-07-14T05:43:00.743Z,99.99
2018-07-14T05:44:00.827Z,99.64
2018-07-14T05:45:00.739Z,99.85
2018-07-14T05:46:00.747Z,99.39
2018-07-14T05:47:00.713Z,99.60
2018-07-14T05:48:00.741Z,99.08
2018-07-14T05:49:00.696Z,99.19
2018-07-14T05:50:00.690Z,98.58
2018-07-14T05:51:00.655Z,98.63
2018-07-14T05:52:00.659Z,99.04
2018-07-14T05:53:00.641Z,98.63
2018-07-14T05:54:00.625Z,99.04
2018-07-14T05:55:00.667Z,98.23
2018-07-14T05:56:00.599Z,98.23
2018-07-14T05:57:00.587Z,97.98
2018-07-14T05:58:00.576Z,98.59
2018-07-14T05:59:00.589Z,97.98
2018-07-14T06:00:00.564Z,98.39
2018-07-14T06:01:00.589Z,97.73
2018-07-14T06:02:00.540Z,97.94
2018-07-14T06:03:00.530Z,96.82
2018-07-14T06:04:00.527Z,97.38
2018-07-14T06:05:00.500Z,97.28
2018-07-14T06:06:00.498Z,95.62
2018-07-14T06:07:00.506Z,95.31
2018-07-14T06:08:00.473Z,94.46
2018-07-14T06:09:00.457Z,94.96
2018-07-14T06:10:00.449Z,94.72
2018-07-14T06:11:00.453Z,93.71
2018-07-14T06:12:00.449Z,92.96
2018-07-14T06:13:00.422Z,93.96
2018-07-14T06:14:00.411Z,91.30
2018-07-14T06:15:00.396Z,92.71
2018-07-14T06:16:00.387Z,91.80
2018-07-14T06:17:00.400Z,90.28
2018-07-14T06:18:00.367Z,92.00
2018-07-14T06:19:00.351Z,91.35
2018-07-14T06:20:00.351Z,91.05
2018-07-14T06:21:00.334Z,91.96
2018-07-14T06:22:00.322Z,91.09
2018-07-14T06:23:00.337Z,91.55
2018-07-14T06:24:00.305Z,91.76
2018-07-14T06:25:00.291Z,90.34
2018-07-14T06:26:00.290Z,89.74
2018-07-14T06:27:00.278Z,90.28
2018-07-14T06:28:00.252Z,91.19
2018-07-14T06:29:00.264Z,90.39
2018-07-14T06:30:00.233Z,92.21
2018-07-14T06:31:00.241Z,90.79
2018-07-14T06:32:00.276Z,90.89
2018-07-14T06:33:00.207Z,91.30
2018-07-14T06:34:00.241Z,90.79
2018-07-14T06:35:00.186Z,90.19
2018-07-14T06:36:00.167Z,91.19
2018-07-14T06:37:00.157Z,90.08
2018-07-14T06:38:00.155Z,91.19
2018-07-14T06:39:00.140Z,91.44
2018-07-14T06:40:00.156Z,91.44
2018-07-14T06:41:00.127Z,90.43
2018-07-14T06:42:00.103Z,90.27
2018-07-14T06:43:00.092Z,91.44
2018-07-14T06:44:00.085Z,91.74
2018-07-14T06:45:00.080Z,91.78
2018-07-14T06:46:00.089Z,91.58
2018-07-14T06:47:00.053Z,92.69
2018-07-14T06:48:00.042Z,92.85
2018-07-14T06:49:00.032Z,92.25
2018-07-14T06:50:00.030Z,91.85
2018-07-14T06:51:00.007Z,90.43
2018-07-14T06:52:00.030Z,90.03
2018-07-14T06:52:59.989Z,92.41
2018-07-14T06:53:59.974Z,91.03
2018-07-14T06:54:59.965Z,91.80
2018-07-14T06:55:59.953Z,90.59
2018-07-14T06:56:59.966Z,89.52
2018-07-14T06:57:59.940Z,90.08
2018-07-14T06:58:59.921Z,90.03
2018-07-14T06:59:59.929Z,88.81
2018-07-14T07:00:59.896Z,88.97
2018-07-14T07:01:59.938Z,90.79
2018-07-14T07:02:59.880Z,90.75
2018-07-14T07:03:59.904Z,91.30
2018-07-14T07:04:59.861Z,89.74
2018-07-14T07:05:59.850Z,88.23
2018-07-14T07:06:59.834Z,88.23
2018-07-14T07:07:59.853Z,88.73
2018-07-14T07:08:59.812Z,87.01
2018-07-14T07:09:59.813Z,88.12
2018-07-14T07:10:59.792Z,88.99
2018-07-14T07:11:59.780Z,87.98
2018-07-14T07:12:59.813Z,86.87
2018-07-14T07:13:59.782Z,86.73
2018-07-14T07:14:59.743Z,88.34
2018-07-14T07:15:59.735Z,87.23
2018-07-14T07:16:59.727Z,86.63
2018-07-14T07:17:59.722Z,87.13
2018-07-14T07:18:59.738Z,86.63
2018-07-14T07:19:59.718Z,88.50
2018-07-14T07:20:59.701Z,86.18
2018-07-14T07:21:59.691Z,85.17
2018-07-14T07:22:59.690Z,88.50
2018-07-14T07:23:59.651Z,85.68
2018-07-14T07:24:59.669Z,86.58
2018-07-14T07:25:59.624Z,86.44
2018-07-14T07:26:59.626Z,87.15
2018-07-14T07:27:59.607Z,84.89
2018-07-14T07:28:59.598Z,87.62
2018-07-14T07:29:59.587Z,86.26
2018-07-14T07:30:59.594Z,83.39
2018-07-14T07:31:59.603Z,83.95
2018-07-14T07:32:59.549Z,81.43
2018-07-14T07:33:59.594Z,81.23
2018-07-14T07:34:59.546Z,80.49
2018-07-14T07:35:59.553Z,81.19
2018-07-14T07:36:59.518Z,79.44
2018-07-14T07:37:59.538Z,81.96
2018-07-14T07:38:59.488Z,80.31
2018-07-14T07:39:59.475Z,80.71
2018-07-14T07:40:59.476Z,79.97
2018-07-14T07:41:59.486Z,82.18
2018-07-14T07:42:59.448Z,79.87
2018-07-14T07:43:59.433Z,80.81
2018-07-14T07:44:59.421Z,77.20
2018-07-14T07:45:59.426Z,79.91
2018-07-14T07:46:59.400Z,79.41
2018-07-14T07:47:59.418Z,81.52
2018-07-14T07:48:59.382Z,81.82
2018-07-14T07:49:59.397Z,82.02
2018-07-14T07:50:59.360Z,80.61
2018-07-14T07:51:59.346Z,80.81
2018-07-14T07:52:59.364Z,82.02
2018-07-14T07:53:59.322Z,82.82
2018-07-14T07:54:59.321Z,80.01
2018-07-14T07:55:59.312Z,79.50
2018-07-14T07:56:59.304Z,79.30
2018-07-14T07:57:59.280Z,82.52
2018-07-14T07:58:59.311Z,81.82
2018-07-14T07:59:59.267Z,79.06
2018-07-14T08:00:59.277Z,78.97
2018-07-14T08:01:59.245Z,81.68
2018-07-14T08:02:59.233Z,80.83
2018-07-14T08:03:59.220Z,78.22
2018-07-14T08:04:59.262Z,79.83
2018-07-14T08:05:59.208Z,77.62
2018-07-14T08:06:59.210Z,77.62
2018-07-14T08:07:59.231Z,77.46
2018-07-14T08:08:59.180Z,77.22
2018-07-14T08:09:59.157Z,78.42
2018-07-14T08:10:59.162Z,79.93
2018-07-14T08:11:59.129Z,81.14
2018-07-14T08:12:59.132Z,80.94
2018-07-14T08:13:59.113Z,80.10
2018-07-14T08:14:59.102Z,78.59
2018-07-14T08:15:59.155Z,77.59
2018-07-14T08:16:59.073Z,77.09
2018-07-14T08:17:59.063Z,78.45
2018-07-14T08:18:59.062Z,78.45
2018-07-14T08:19:59.049Z,76.34
2018-07-14T08:20:59.040Z,75.34
2018-07-14T08:21:59.055Z,76.34
2018-07-14T08:22:59.074Z,76.41
2018-07-14T08:23:59.034Z,77.15
2018-07-14T08:24:58.988Z,75.41
2018-07-14T08:25:58.989Z,73.80
2018-07-14T08:26:58.970Z,74.71
2018-07-14T08:27:58.983Z,72.16
2018-07-14T08:28:58.953Z,76.28
2018-07-14T08:29:58.938Z,74.73
2018-07-14T08:30:58.927Z,73.63
2018-07-14T08:31:58.936Z,71.93
2018-07-14T08:32:58.937Z,73.13
2018-07-14T08:33:58.910Z,77.06
2018-07-14T08:34:58.915Z,70.86
2018-07-14T08:35:58.875Z,71.83
2018-07-14T08:36:58.872Z,67.69
2018-07-14T08:37:58.900Z,69.96
2018-07-14T08:38:58.894Z,68.66
2018-07-14T08:39:58.837Z,70.32
2018-07-14T08:40:58.828Z,67.19
2018-07-14T08:41:58.817Z,69.89
2018-07-14T08:42:58.824Z,66.30
2018-07-14T08:43:58.794Z,64.27
2018-07-14T08:44:58.797Z,66.73
2018-07-14T08:45:58.776Z,67.13
2018-07-14T08:46:58.775Z,65.73
2018-07-14T08:47:58.756Z,62.24
2018-07-14T08:48:58.739Z,64.11
2018-07-14T08:49:58.753Z,61.71
2018-07-14T08:50:58.720Z,66.20
2018-07-14T08:51:58.712Z,66.14
2018-07-14T08:52:58.704Z,63.65
2018-07-14T08:53:58.704Z,62.55
2018-07-14T08:54:58.706Z,65.01
2018-07-14T08:55:58.726Z,62.13
2018-07-14T08:56:58.693Z,62.02
2018-07-14T08:57:58.711Z,61.00
2018-07-14T08:58:58.644Z,59.51
2018-07-14T08:59:58.632Z,61.80
2018-07-14T09:00:58.623Z,60.30
2018-07-14T09:01:58.638Z,58.18
2018-07-14T09:02:58.601Z,57.49
2018-07-14T09:03:58.591Z,60.68
2018-07-14T09:04:58.588Z,58.36
2018-07-14T09:05:58.576Z,58.28
2018-07-14T09:06:58.567Z,60.47
2018-07-14T09:07:58.581Z,58.78
2018-07-14T09:08:58.536Z,58.65
2018-07-14T09:09:58.526Z,60.64
2018-07-14T09:10:58.518Z,61.31
2018-07-14T09:11:58.512Z,59.03
2018-07-14T09:12:58.530Z,60.09
2018-07-14T09:13:58.509Z,58.37
2018-07-14T09:14:58.481Z,54.93
2018-07-14T09:15:58.465Z,55.19
2018-07-14T09:16:58.459Z,55.36
2018-07-14T09:17:58.469Z,57.23
2018-07-14T09:18:58.481Z,57.32
2018-07-14T09:19:58.442Z,58.02
2018-07-14T09:20:58.420Z,54.38
2018-07-14T09:21:58.453Z,58.94
2018-07-14T09:22:58.397Z,55.57
2018-07-14T09:23:58.390Z,55.17
2018-07-14T09:24:58.404Z,58.37
2018-07-14T09:25:58.384Z,60.50
2018-07-14T09:26:58.371Z,55.15
2018-07-14T09:27:58.346Z,56.13
2018-07-14T09:28:58.338Z,55.47
2018-07-14T09:29:58.355Z,56.43
2018-07-14T09:30:58.327Z,53.53
2018-07-14T09:31:58.330Z,57.27
2018-07-14T09:32:58.308Z,53.48
2018-07-14T09:33:58.341Z,55.16
2018-07-14T09:34:58.278Z,55.43
2018-07-14T09:35:58.304Z,52.73
2018-07-14T09:36:58.263Z,51.77
2018-07-14T09:37:58.338Z,51.47
2018-07-14T09:38:58.244Z,53.45
2018-07-14T09:39:58.316Z,53.85
2018-07-14T09:40:58.243Z,55.80
2018-07-14T09:41:58.264Z,51.13
2018-07-14T09:42:58.202Z,54.32
2018-07-14T09:43:58.226Z,52.86
2018-07-14T09:44:58.192Z,52.86
2018-07-14T09:45:58.179Z,57.26
2018-07-14T09:46:58.221Z,52.48
2018-07-14T09:47:58.160Z,54.36
2018-07-14T09:48:58.142Z,50.41
2018-07-14T09:49:58.132Z,52.29
2018-07-14T09:50:58.155Z,50.90
2018-07-14T09:51:58.113Z,50.93
2018-07-14T09:52:58.125Z,50.83
2018-07-14T09:53:58.090Z,51.03
2018-07-14T09:54:58.081Z,50.18
2018-07-14T09:55:58.073Z,51.00
2018-07-14T09:56:58.067Z,53.53
2018-07-14T09:57:58.051Z,54.42
2018-07-14T09:58:58.080Z,53.53
2018-07-14T09:59:58.025Z,56.97
2018-07-14T10:00:58.028Z,52.64
2018-07-14T10:01:58.016Z,57.53
2018-07-14T10:02:58.004Z,55.04
2018-07-14T10:03:57.992Z,57.95
2018-07-14T10:04:58.012Z,58.25
2018-07-14T10:05:57.972Z,56.76
2018-07-14T10:06:57.952Z,56.68
2018-07-14T10:07:57.948Z,57.08
2018-07-14T10:08:57.936Z,59.07
2018-07-14T10:09:58.007Z,57.21
2018-07-14T10:10:57.917Z,61.78
2018-07-14T10:11:57.899Z,57.81
2018-07-14T10:12:57.892Z,58.03
2018-07-14T10:13:57.881Z,62.90
2018-07-14T10:14:57.908Z,58.43
2018-07-14T10:15:57.898Z,64.59
2018-07-14T10:16:57.852Z,62.30
2018-07-14T10:17:57.842Z,64.59
2018-07-14T10:18:57.833Z,57.76
2018-07-14T10:19:57.819Z,57.76
2018-07-14T10:20:57.825Z,61.11
2018-07-14T10:21:57.837Z,61.91
2018-07-14T10:22:57.794Z,58.23
2018-07-14T10:23:57.808Z,62.97
2018-07-14T10:24:57.792Z,61.68
2018-07-14T10:25:57.848Z,56.81
2018-07-14T10:26:57.769Z,59.03
2018-07-14T10:27:57.745Z,61.08
2018-07-14T10:28:57.751Z,60.78
2018-07-14T10:29:57.714Z,60.88
2018-07-14T10:30:57.705Z,61.58
2018-07-14T10:31:57.689Z,59.09
2018-07-14T10:32:57.718Z,60.71
2018-07-14T10:33:57.767Z,55.22
2018-07-14T10:34:57.689Z,61.80
2018-07-14T10:35:57.679Z,57.73
2018-07-14T10:36:57.642Z,61.41
2018-07-14T10:37:57.628Z,63.17
2018-07-14T10:38:57.652Z,57.70
2018-07-14T10:39:57.621Z,57.51
2018-07-14T10:40:57.598Z,57.41
2018-07-14T10:41:57.649Z,61.98
2018-07-14T10:42:57.580Z,64.26
2018-07-14T10:43:57.605Z,58.90
2018-07-14T10:44:57.590Z,58.07
2018-07-14T10:45:57.545Z,57.18
2018-07-14T10:46:57.533Z,56.71
2018-07-14T10:47:57.530Z,57.01
2018-07-14T10:48:57.528Z,56.12
2018-07-14T10:49:57.545Z,61.55
2018-07-14T10:50:57.495Z,61.42
2018-07-14T10:51:57.482Z,60.50
2018-07-14T10:52:57.477Z,54.82
2018-07-14T10:53:57.464Z,58.23
2018-07-14T10:54:57.463Z,56.82
2018-07-14T10:55:57.473Z,55.01
2018-07-14T10:56:57.432Z,52.01
2018-07-14T10:57:57.422Z,58.61
2018-07-14T10:58:57.409Z,58.19
2018-07-14T10:59:57.431Z,58.09
2018-07-14T11:00:57.404Z,55.82
2018-07-14T11:01:57.422Z,53.50
2018-07-14T11:02:57.377Z,52.76
2018-07-14T11:03:57.375Z,54.02
2018-07-14T11:04:57.364Z,59.48
2018-07-14T11:05:57.340Z,55.15
2018-07-14T11:06:57.326Z,58.02
2018-07-14T11:07:57.353Z,61.46
2018-07-14T11:08:57.311Z,59.55
2018-07-14T11:09:57.300Z,58.06
2018-07-14T11:10:57.291Z,54.20
2018-07-14T11:11:57.284Z,59.25
2018-07-14T11:12:57.271Z,54.49
2018-07-14T11:13:57.280Z,53.31
2018-07-14T11:14:57.293Z,52.51
2018-07-14T11:15:57.235Z,56.57
2018-07-14T11:16:57.234Z,52.02
2018-07-14T11:17:57.254Z,57.04
2018-07-14T11:18:57.236Z,53.48
2018-07-14T11:19:57.205Z,56.23
2018-07-14T11:20:57.199Z,55.73
2018-07-14T11:21:57.184Z,57.71
2018-07-14T11:22:57.183Z,56.40
2018-07-14T11:23:57.157Z,59.06
2018-07-14T11:24:57.191Z,50.34
2018-07-14T11:25:57.146Z,49.02
2018-07-14T11:26:57.150Z,49.42
2018-07-14T11:27:57.126Z,49.42
2018-07-14T11:28:57.113Z,51.84
2018-07-14T11:29:57.105Z,48.81
2018-07-14T11:30:57.112Z,50.04
2018-07-14T11:31:57.091Z,49.38
2018-07-14T11:32:57.090Z,46.50
2018-07-14T11:33:57.074Z,43.55
2018-07-14T11:34:57.072Z,42.92
2018-07-14T11:35:57.079Z,45.48
2018-07-14T11:36:57.047Z,43.32
2018-07-14T11:37:57.042Z,48.00
2018-07-14T11:38:57.027Z,48.44
2018-07-14T11:39:57.026Z,49.18
2018-07-14T11:40:57.008Z,50.29
2018-07-14T11:41:57.033Z,52.51
2018-07-14T11:42:56.985Z,45.02
2018-07-14T11:43:56.983Z,44.44
2018-07-14T11:44:56.973Z,47.52
2018-07-14T11:45:56.962Z,45.61
2018-07-14T11:46:56.957Z,40.08
2018-07-14T11:47:57.046Z,43.17
2018-07-14T11:48:56.952Z,41.88
2018-07-14T11:49:56.927Z,39.70
2018-07-14T11:50:56.915Z,39.65
2018-07-14T11:51:56.916Z,39.67
2018-07-14T11:52:56.903Z,33.96
2018-07-14T11:53:56.927Z,38.62
2018-07-14T11:54:56.892Z,34.52
2018-07-14T11:55:56.875Z,33.44
2018-07-14T11:56:56.869Z,38.32
2018-07-14T11:57:56.864Z,38.59
2018-07-14T11:58:56.867Z,40.41
2018-07-14T11:59:56.869Z,39.98
2018-07-14T12:00:56.847Z,41.61
2018-07-14T12:01:56.878Z,41.76
2018-07-14T12:02:56.815Z,42.76
2018-07-14T12:03:56.815Z,42.50
2018-07-14T12:04:56.803Z,38.77
2018-07-14T12:05:56.813Z,38.43
2018-07-14T12:06:56.786Z,39.69
2018-07-14T12:07:56.771Z,43.19
2018-07-14T12:08:56.766Z,42.21
2018-07-14T12:09:56.757Z,46.28
2018-07-14T12:10:56.785Z,44.78
2018-07-14T12:11:56.742Z,46.75
2018-07-14T12:12:56.741Z,45.68
2018-07-14T12:13:56.728Z,43.23
2018-07-14T12:14:56.710Z,41.82
2018-07-14T12:15:56.762Z,45.15
2018-07-14T12:16:56.744Z,44.43
2018-07-14T12:17:56.684Z,44.57
2018-07-14T12:18:56.684Z,50.14
2018-07-14T12:19:56.660Z,50.95
2018-07-14T12:20:56.656Z,49.57
2018-07-14T12:21:56.659Z,47.64
2018-07-14T12:22:56.665Z,51.20
2018-07-14T12:23:56.629Z,51.67
2018-07-14T12:24:56.617Z,46.72
2018-07-14T12:25:56.607Z,46.48
2018-07-14T12:26:56.607Z,43.57
2018-07-14T12:27:56.619Z,40.16
2018-07-14T12:28:56.580Z,41.76
2018-07-14T12:29:56.570Z,38.06
2018-07-14T12:30:56.565Z,38.73
2018-07-14T12:31:56.581Z,37.87
2018-07-14T12:32:56.583Z,37.66
2018-07-14T12:33:56.560Z,35.81
2018-07-14T12:34:56.523Z,32.20
2018-07-14T12:35:56.524Z,38.48
2018-07-14T12:36:56.510Z,33.53
2018-07-14T12:37:56.507Z,33.20
2018-07-14T12:38:56.496Z,37.01
2018-07-14T12:39:56.498Z,36.77
2018-07-14T12:40:56.479Z,41.28
2018-07-14T12:41:56.466Z,36.25
2018-07-14T12:42:56.462Z,35.93
2018-07-14T12:43:56.452Z,34.14
2018-07-14T12:44:56.471Z,38.01
2018-07-14T12:45:56.433Z,34.33
2018-07-14T12:46:56.422Z,33.44
2018-07-14T12:47:56.425Z,35.25
2018-07-14T12:48:56.411Z,33.80
2018-07-14T12:49:56.404Z,31.58
2018-07-14T12:50:56.425Z,34.42
2018-07-14T12:51:56.382Z,36.80